Latest Weather Observations for Bulman

IDD60801

Issued at 9:31 pm CST Wednesday 24 August 2016 (issued every 30 minutes, with the page automatically refreshed every 10 minutes)

About weather observations | Map of weather stations | Latest weather observations for NT | Other Formats
Station Details ID: 014627 Name: BULMAN Lat: -13.67 Lon: 134.34 Height: 103.4 m
Data from the previous 72 hours. | See also: Recent months at Bulman
Date/Time
CST
Temp
°C
App
Temp
°C
Dew
Point
°C
Rel
Hum
%
Delta-T
°C
Wind Press
QNH
hPa
Press
MSL
hPa
Rain since
9am
mm
Dir  Spd
km/h
Gust
km/h
Spd
kts
Gust
kts
24/09:30pm 26.4 26.2 11.7 40 8.4 S 4 6 2 3 1010.3 1009.8 0.0
24/09:00pm 27.7 27.0 11.3 36 9.4 S 6 7 3 4 1010.0 1009.5 0.0
24/08:30pm 27.9 27.0 11.5 36 9.5 W 7 9 4 5 1009.5 1009.0 0.0
24/08:00pm 28.8 27.8 10.9 33 10.3 WSW 7 9 4 5 1009.0 1008.5 0.0
24/07:30pm 30.5 29.4 10.5 29 11.5 WSW 7 9 4 5 1008.5 1008.0 0.0
24/07:00pm 32.7 31.4 10.1 25 13.0 W 7 13 4 7 1008.0 1007.5 0.0
24/06:30pm 33.9 31.8 9.9 23 13.9 WNW 11 19 6 10 1007.6 1007.1 0.0
24/06:00pm 34.9 32.9 10.0 22 14.5 WNW 11 19 6 10 1007.2 1006.7 0.0
24/05:30pm 36.2 35.0 10.4 21 15.2 WNW 7 11 4 6 1006.9 1006.4 0.0
24/05:00pm 36.4 34.5 10.6 21 15.2 WNW 11 22 6 12 1006.8 1006.3 0.0
24/04:30pm 36.2 34.1 11.1 22 14.9 NW 13 20 7 11 1006.6 1006.1 0.0
24/04:00pm 36.8 35.2 11.6 22 15.1 NW 11 20 6 11 1006.6 1006.1 0.0
24/03:30pm 36.3 34.2 11.2 22 15.0 NNW 13 19 7 10 1006.7 1006.2 0.0
24/03:00pm 35.3 33.5 11.0 23 14.4 W 11 22 6 12 1006.9 1006.4 0.0
24/02:30pm 36.4 34.3 11.3 22 15.0 W 13 24 7 13 1007.1 1006.6 0.0
24/02:00pm 35.8 34.0 12.1 24 14.2 NW 13 22 7 12 1007.6 1007.1 0.0
24/01:30pm 34.4 32.2 12.1 26 13.4 NNW 15 30 8 16 1008.1 1007.6 0.0
24/01:00pm 35.2 34.4 12.8 26 13.6 NW 9 17 5 9 1008.5 1008.0 0.0
24/12:30pm 33.3 31.6 12.3 28 12.6 NNW 13 22 7 12 1009.0 1008.5 0.0
24/12:00pm 33.4 32.4 13.5 30 12.1 NW 11 22 6 12 1009.6 1009.1 0.0
24/11:30am 33.6 33.0 14.6 31 11.8 WNW 11 19 6 10 1010.5 1010.0 0.0
24/11:00am 32.5 31.9 14.6 34 11.0 W 11 19 6 10 1011.2 1010.7 0.0
24/10:30am 31.7 31.3 15.2 36 10.2 WNW 11 19 6 10 1011.6 1011.1 0.0
24/10:00am 30.5 31.1 16.9 44 8.6 NNW 9 20 5 11 1011.9 1011.4 0.0
24/09:30am 29.7 30.3 17.8 48 7.6 NW 11 19 6 10 1012.1 1011.6 0.0
24/09:00am 27.6 29.3 19.4 61 5.3 NW 9 13 5 7 1012.2 1011.7 0.0
24/08:30am 25.9 28.1 20.5 72 3.5 NNW 9 11 5 6 1012.2 1011.7 0.0
24/08:00am 24.2 26.3 20.1 78 2.7 NNW 9 13 5 7 1012.1 1011.6 0.0
24/07:30am 22.9 25.2 19.9 83 1.9 NNW 7 9 4 5 1011.8 1011.3 0.0
24/07:00am 22.1 24.5 19.6 86 1.6 NNW 6 9 3 5 - - 0.0
24/06:30am 22.1 24.3 19.5 85 1.7 NW 7 9 4 5 1011.1 1010.6 0.0
24/06:00am 22.2 24.6 19.6 85 1.7 NW 6 7 3 4 1010.8 1010.3 0.0
24/05:30am 22.3 24.5 19.3 83 1.9 NNW 6 6 3 3 1010.6 1010.1 0.0
24/05:00am 22.6 24.8 19.2 81 2.2 N 6 7 3 4 1010.4 1009.9 0.0
24/04:30am 23.1 25.7 19.3 79 2.4 NNW 4 6 2 3 1010.2 1009.7 0.0
24/04:00am 23.5 25.8 19.4 78 2.6 N 6 9 3 5 1010.1 1009.6 0.0
24/03:30am 23.5 26.1 19.2 77 2.8 N 4 7 2 4 1010.0 1009.5 0.0
24/03:00am 23.7 25.9 19.2 76 2.9 N 6 9 3 5 1009.9 1009.4 0.0
24/02:30am 23.8 26.0 19.1 75 3.0 N 6 9 3 5 1009.8 1009.3 0.0
24/02:00am 24.2 26.0 18.8 72 3.4 NNW 7 9 4 5 1009.8 1009.3 0.0
24/01:30am 24.6 25.7 18.8 70 3.7 NNW 11 17 6 9 1009.6 1009.1 0.0
24/01:00am 25.0 25.4 18.2 66 4.3 NNW 13 17 7 9 1009.6 1009.1 0.0
24/12:30am 25.4 26.5 18.1 64 4.6 NNW 9 15 5 8 1009.6 1009.1 0.0
24/12:00am 26.0 26.4 18.2 62 5.0 NNW 13 20 7 11 1009.6 1009.1 0.0
 
Date/Time
CST
Temp
°C
App
Temp
°C
Dew
Point
°C
Rel
Hum
%
Delta-T
°C
Wind Press
QNH
hPa
Press
MSL
hPa
Rain since
9am
mm
Dir  Spd
km/h
Gust
km/h
Spd
kts
Gust
kts
23/11:30pm 26.6 27.0 18.2 60 5.4 NNW 13 22 7 12 1009.5 1009.0 0.0
23/11:00pm 27.2 27.5 17.9 56 5.9 NNW 13 19 7 10 1009.4 1008.9 0.0
23/10:30pm 27.9 27.7 17.7 53 6.5 NNW 15 24 8 13 1009.3 1008.8 0.0
23/10:00pm 27.8 28.4 15.8 48 7.4 N 7 13 4 7 1009.1 1008.6 0.0
23/09:30pm 28.3 28.0 14.5 43 8.4 N 9 15 5 8 1008.8 1008.3 0.0
23/09:00pm 27.5 27.9 11.1 36 9.4 CALM 0 7 0 4 1008.3 1007.8 0.0
23/08:30pm 31.2 29.5 11.1 29 11.7 W 11 15 6 8 1007.8 1007.3 0.0
23/08:00pm 30.6 29.5 10.5 29 11.5 W 7 9 4 5 1007.6 1007.1 0.0
23/07:30pm 32.0 30.4 10.1 26 12.6 WNW 9 11 5 6 1007.2 1006.7 0.0
23/07:00pm 32.2 30.8 9.7 25 12.8 WNW 7 13 4 7 1006.8 1006.3 0.0
23/06:30pm 33.3 31.1 9.4 23 13.7 WNW 11 19 6 10 1006.4 1005.9 0.0
23/06:00pm 34.4 32.1 8.9 21 14.6 WNW 11 20 6 11 1005.9 1005.5 0.0
23/05:30pm 35.1 31.8 9.5 21 14.8 NW 17 24 9 13 1005.6 1005.2 0.0
23/05:00pm 35.1 32.5 9.5 21 14.8 NW 13 20 7 11 1005.4 1005.0 0.0
23/04:30pm 34.9 33.2 11.3 24 14.0 NNW 11 22 6 12 1005.3 1004.9 0.0
23/04:00pm 35.9 33.7 12.2 24 14.3 NNW 15 20 8 11 1005.3 1004.9 0.0
23/03:30pm 35.0 32.4 12.0 25 13.8 N 17 22 9 12 1005.4 1005.0 0.0
23/03:00pm 35.5 33.2 13.1 26 13.7 NW 17 26 9 14 1005.7 1005.3 0.0
23/02:30pm 35.7 33.7 13.8 27 13.5 NNW 17 28 9 15 1006.1 1005.7 0.0
23/02:00pm 34.9 34.5 15.3 31 12.3 NNW 11 20 6 11 1006.8 1006.3 0.0
23/01:30pm 33.9 33.6 15.4 33 11.6 NNW 11 26 6 14 1007.5 1007.0 0.0
23/01:00pm 33.3 33.1 16.6 36 10.6 NW 13 22 7 12 1008.1 1007.6 0.0
23/12:30pm 33.0 32.8 16.8 38 10.3 NW 13 24 7 13 1008.8 1008.3 0.0
23/12:00pm 32.1 31.9 17.6 42 9.3 WNW 15 24 8 13 1009.4 1008.9 0.0
23/11:30am 31.3 31.8 18.3 46 8.4 NNW 13 20 7 11 1010.2 1009.7 0.0
23/11:00am 30.0 30.0 18.1 49 7.6 NW 15 20 8 11 1010.8 1010.3 0.0
23/10:30am 29.7 30.0 18.8 52 7.1 NNW 15 20 8 11 1011.1 1010.6 0.0
23/10:00am 28.8 28.8 18.9 55 6.4 NNW 17 24 9 13 1011.5 1011.0 0.0
23/09:30am 28.3 29.2 19.2 57 5.9 NW 13 20 7 11 1011.5 1011.0 0.0
23/09:00am 26.5 27.9 19.6 66 4.5 NNW 11 17 6 9 1011.6 1011.1 0.0
23/08:30am 25.4 27.4 20.0 72 3.5 NNW 9 15 5 8 1011.6 1011.1 0.0
23/08:00am 23.5 25.7 19.6 79 2.5 N 7 9 4 5 1011.3 1010.8 0.0
23/07:30am 22.5 25.5 20.0 86 1.6 N 4 7 2 4 1011.1 1010.6 0.0
23/07:00am 21.7 25.1 19.4 87 1.5 CALM 0 6 0 3 1011.0 1010.5 0.0
23/06:30am 21.9 24.2 19.5 86 1.5 N 6 9 3 5 1010.7 1010.2 0.0
23/06:00am 22.4 24.6 19.6 84 1.8 NNW 7 9 4 5 1010.4 1009.9 0.0
23/05:30am 22.7 24.9 19.7 83 1.9 NNW 7 11 4 6 1010.3 1009.8 0.0
23/05:00am 22.9 25.1 19.7 82 2.1 NNW 7 9 4 5 1010.0 1009.5 0.0
23/04:30am 23.3 25.3 19.9 81 2.2 NNW 9 13 5 7 1010.0 1009.5 0.0
23/04:00am 23.5 25.4 19.8 80 2.4 NNW 9 13 5 7 1010.0 1009.5 0.0
23/03:30am 23.4 25.9 19.8 80 2.3 N 6 11 3 6 1010.0 1009.5 0.0
23/03:00am 23.2 25.4 19.6 80 2.3 NNW 7 9 4 5 1010.0 1009.5 0.0
23/02:30am 23.4 25.4 19.1 77 2.7 N 7 9 4 5 1010.0 1009.5 0.0
23/02:00am 23.9 25.9 19.2 75 3.0 NNW 7 11 4 6 1010.1 1009.6 0.0
23/01:30am 24.3 26.0 19.4 74 3.2 N 9 13 5 7 1010.2 1009.7 0.0
23/01:00am 24.6 26.1 19.0 71 3.6 N 9 15 5 8 1010.2 1009.7 0.0
23/12:30am 25.1 26.2 18.8 68 4.0 N 11 19 6 10 1010.1 1009.6 0.0
23/12:00am 25.7 25.8 18.4 64 4.7 N 15 24 8 13 1010.2 1009.7 0.0
 
Date/Time
CST
Temp
°C
App
Temp
°C
Dew
Point
°C
Rel
Hum
%
Delta-T
°C
Wind Press
QNH
hPa
Press
MSL
hPa
Rain since
9am
mm
Dir  Spd
km/h
Gust
km/h
Spd
kts
Gust
kts
22/11:30pm 26.3 26.8 18.4 61 5.0 N 13 20 7 11 1010.5 1010.0 0.0
22/11:00pm 26.8 27.3 19.2 63 4.9 NNE 15 26 8 14 1010.4 1009.9 0.0
22/10:30pm 27.4 27.0 18.9 59 5.5 NNE 19 30 10 16 1010.3 1009.8 0.0
22/10:00pm 28.1 28.0 18.8 57 6.0 NNE 17 28 9 15 1009.8 1009.3 0.0
22/09:30pm 29.1 29.3 18.5 52 6.8 N 15 26 8 14 1009.3 1008.8 0.0
22/09:00pm 29.9 30.0 17.4 47 8.0 N 13 17 7 9 1008.8 1008.3 0.0
22/08:30pm 30.0 30.4 15.3 41 9.1 N 7 20 4 11 1008.3 1007.8 0.0
22/08:00pm 28.7 29.3 13.0 38 9.3 NE 2 6 1 3 1007.7 1007.2 0.0
22/07:30pm 30.1 31.0 13.0 35 10.2 CALM 0 0 0 0 1007.2 1006.7 0.0
22/07:00pm 31.4 31.3 12.2 30 11.4 N 4 6 2 3 1006.8 1006.3 0.0
22/06:30pm 32.5 31.9 12.2 29 12.1 NNE 7 11 4 6 1006.6 1006.1 0.0
22/06:00pm 33.5 33.9 12.5 28 12.6 N 2 7 1 4 1006.2 1005.8 0.0
22/05:30pm 34.3 34.0 12.6 27 13.1 W 6 9 3 5 1005.9 1005.5 0.0
22/05:00pm 34.0 33.6 12.4 27 12.9 NW 6 11 3 6 1005.7 1005.3 0.0
22/04:30pm 33.5 32.6 12.5 28 12.6 WNW 9 15 5 8 1005.7 1005.3 0.0
22/04:00pm 35.5 35.3 13.1 26 13.6 NW 6 11 3 6 1005.7 1005.3 0.0
22/03:30pm 34.9 34.2 13.1 27 13.3 NNW 9 19 5 10 1006.0 1005.6 0.0
22/03:00pm 34.3 34.0 13.2 28 12.8 NW 7 13 4 7 1006.4 1005.9 0.0
22/02:30pm 33.9 33.3 13.4 29 12.5 N 9 20 5 11 1006.8 1006.3 0.0
22/02:00pm 33.1 32.9 13.7 31 11.8 W 7 13 4 7 1007.3 1006.8 0.0
22/01:30pm 33.7 34.4 15.7 34 11.3 N 6 11 3 6 1007.9 1007.4 0.0
22/01:00pm 32.5 32.1 15.1 35 10.8 NNW 11 19 6 10 1008.6 1008.1 0.0
22/12:30pm 32.3 32.1 15.7 36 10.4 NW 11 20 6 11 1009.2 1008.7 0.0
22/12:00pm 31.1 31.4 15.9 40 9.5 NW 9 15 5 8 1009.9 1009.4 0.0
22/11:30am 30.7 31.0 17.0 43 8.7 NNE 11 17 6 9 1010.5 1010.0 0.0
22/11:00am 30.1 31.4 17.5 46 8.0 NNW 7 15 4 8 1011.1 1010.6 0.0
22/10:30am 28.9 29.5 17.7 50 7.1 NNW 11 20 6 11 1011.6 1011.1 0.0
22/10:00am 27.7 28.0 17.8 54 6.3 NNW 13 24 7 13 1011.9 1011.4 0.0
22/09:30am 26.6 27.5 19.2 64 4.8 NNW 13 19 7 10 1012.1 1011.6 0.0
22/09:00am 25.7 26.8 19.6 69 4.0 NNW 13 20 7 11 1012.1 1011.6 0.0
22/08:30am 24.4 25.5 19.7 75 3.0 NNW 13 20 7 11 1012.0 1011.5 0.0
22/08:00am 22.4 24.3 19.0 81 2.2 N 7 9 4 5 1011.8 1011.3 0.0
22/07:30am 20.8 23.9 18.7 88 1.3 CALM 0 0 0 0 1011.5 1011.0 0.0
22/07:00am 19.2 21.6 17.0 87 1.3 CALM 0 0 0 0 1011.4 1010.9 0.0
22/06:30am 19.5 20.9 17.3 87 1.3 N 6 7 3 4 1011.0 1010.5 0.0
22/06:00am 19.5 21.9 16.9 85 1.6 CALM 0 0 0 0 1010.7 1010.2 0.0
22/05:30am 19.7 22.0 16.7 83 1.8 CALM 0 4 0 2 1010.4 1009.9 0.0
22/05:00am 20.1 22.6 17.3 84 1.7 CALM 0 0 0 0 1010.3 1009.8 0.0
22/04:30am 20.3 22.7 17.1 82 2.0 CALM 0 0 0 0 1010.1 1009.6 0.0
22/04:00am 21.0 23.3 17.6 81 2.1 N 2 7 1 4 1009.9 1009.4 0.0
22/03:30am 20.9 23.2 16.7 77 2.6 CALM 0 0 0 0 1010.0 1009.5 0.0
22/03:00am 21.4 23.8 17.0 76 2.7 CALM 0 0 0 0 1010.0 1009.5 0.0
22/02:30am 22.1 23.4 17.0 73 3.1 NNW 6 6 3 3 1010.2 1009.7 0.0
22/02:00am 22.8 24.1 17.5 72 3.3 NNW 7 11 4 6 1010.4 1009.9 0.0
22/01:30am 23.2 24.4 17.4 70 3.6 NNW 7 9 4 5 1010.6 1010.1 0.0
22/01:00am 23.7 25.0 17.2 67 4.0 N 6 9 3 5 1010.8 1010.3 0.0
22/12:30am 24.4 25.7 17.1 63 4.5 N 6 9 3 5 1011.0 1010.5 0.0
22/12:00am 24.9 26.0 17.1 62 4.9 N 7 13 4 7 1011.1 1010.6 0.0
 
Date/Time
CST
Temp
°C
App
Temp
°C
Dew
Point
°C
Rel
Hum
%
Delta-T
°C
Wind Press
QNH
hPa
Press
MSL
hPa
Rain since
9am
mm
Dir  Spd
km/h
Gust
km/h
Spd
kts
Gust
kts
21/11:30pm 25.3 25.7 16.4 57 5.5 N 9 13 5 7 1011.0 1010.5 0.0
21/11:00pm 25.8 25.9 15.5 53 6.3 N 9 17 5 9 1011.0 1010.5 0.0
21/10:30pm 26.3 26.0 14.4 48 7.1 N 9 13 5 7 1010.8 1010.3 0.0
21/10:00pm 26.2 25.1 11.9 41 8.2 NNE 9 11 5 6 1010.6 1010.1 0.0

Other Formats:

Comma delimited format used in spreadsheet applications
http://www.bom.gov.au/fwo/IDD60801/IDD60801.94143.axf

JavaScript Object Notation format (JSON) in row-major order
http://www.bom.gov.au/fwo/IDD60801/IDD60801.94143.json